Pirovano, Argentina
Current Conditions -  °F | °C
As of 12:00 PM on Saturday 20 Dec 2014 (Local Time) from SAEZ Reporting Station
Thunderstorm Thunderstorm  
Wind Chill: 68°   Ceiling: 6000
Heat Index: 68°   Visibility: 5mi
Dew Point: 64°   Wind: 28mph
Humidity: 88%   Direction: 70°ENE
Pressure: 29.47"   Gusts: 35mph
Location:  36.5°S, 61.57°W
Report Text: SAEZ 201500Z 07024G30KT 8000 -TSRA SCT025 FEW050CB OVC060 20/18 Q0998
Loading
Personal Weather Stations






























Interactive Weather Map New forecast layout! Learn more

10-Day Weather Forecast

Advertisements
Track Severe Weather on mobile